createdAt,value
2015-05-13T00:00:15.478Z,0
2015-05-13T00:00:33.730Z,0
2015-05-13T00:00:51.980Z,0
2015-05-13T00:01:10.230Z,0
2015-05-13T00:01:28.483Z,0
2015-05-13T00:01:46.733Z,0
2015-05-13T00:02:04.983Z,0
2015-05-13T00:02:23.233Z,0
2015-05-13T00:02:41.469Z,0
2015-05-13T00:02:59.735Z,0
2015-05-13T00:03:17.985Z,0
2015-05-13T00:03:36.237Z,0
2015-05-13T00:03:54.487Z,0
2015-05-13T00:04:12.737Z,0
2015-05-13T00:04:30.990Z,0
2015-05-13T00:04:49.240Z,0
2015-05-13T00:05:07.474Z,0
2015-05-13T00:05:25.726Z,0
2015-05-13T00:05:43.976Z,0
2015-05-13T00:06:02.226Z,0
2015-05-13T00:06:20.476Z,0
2015-05-13T00:06:38.728Z,0
2015-05-13T00:06:56.962Z,0
2015-05-13T00:07:15.228Z,0
2015-05-13T00:07:33.465Z,0
2015-05-13T00:07:51.715Z,0
2015-05-13T00:08:09.965Z,0
2015-05-13T00:08:28.217Z,0
2015-05-13T00:08:46.467Z,0
2015-05-13T00:09:04.717Z,0
2015-05-13T00:09:22.967Z,0
2015-05-13T00:09:41.220Z,0
2015-05-13T00:09:59.470Z,0
2015-05-13T00:10:17.720Z,0
2015-05-13T00:10:35.972Z,0
2015-05-13T00:10:54.222Z,0
2015-05-13T00:11:12.457Z,0
2015-05-13T00:11:30.723Z,0
2015-05-13T00:11:48.958Z,0
2015-05-13T00:12:07.208Z,0
2015-05-13T00:12:25.458Z,0
2015-05-13T00:12:43.711Z,0
2015-05-13T00:13:01.961Z,0
2015-05-13T00:13:20.211Z,0
2015-05-13T00:13:38.464Z,0
2015-05-13T00:13:56.714Z,0
2015-05-13T00:14:14.964Z,0
2015-05-13T00:14:33.200Z,0
2015-05-13T00:14:51.450Z,0
2015-05-13T00:15:09.684Z,0
2015-05-13T00:15:27.952Z,0
2015-05-13T00:15:46.202Z,0
2015-05-13T00:16:04.452Z,0
2015-05-13T00:16:22.686Z,0
2015-05-13T00:16:40.939Z,0
2015-05-13T00:16:59.189Z,0
2015-05-13T00:17:17.439Z,0
2015-05-13T00:17:35.691Z,0
2015-05-13T00:17:53.941Z,0
2015-05-13T00:18:12.191Z,0
2015-05-13T00:18:30.443Z,0
2015-05-13T00:18:48.693Z,0
2015-05-13T00:19:06.943Z,0
2015-05-13T00:19:25.193Z,0
2015-05-13T00:19:43.445Z,0
2015-05-13T00:20:01.695Z,0
2015-05-13T00:20:19.945Z,0
2015-05-13T00:20:38.182Z,0
2015-05-13T00:20:56.432Z,0
2015-05-13T00:21:14.682Z,0
2015-05-13T00:21:32.935Z,0
2015-05-13T00:21:51.185Z,0
2015-05-13T00:22:09.435Z,0
2015-05-13T00:22:27.685Z,0
2015-05-13T00:22:45.937Z,0
2015-05-13T00:23:04.187Z,0
2015-05-13T00:23:22.437Z,0
2015-05-13T00:23:40.690Z,0
2015-05-13T00:23:58.924Z,0
2015-05-13T00:24:17.174Z,0
2015-05-13T00:24:35.426Z,0
2015-05-13T00:24:53.676Z,0
2015-05-13T00:25:11.911Z,0
2015-05-13T00:25:30.164Z,0
2015-05-13T00:25:48.398Z,0
2015-05-13T00:26:06.648Z,0
2015-05-13T00:26:24.898Z,0
2015-05-13T00:26:43.150Z,0
2015-05-13T00:27:01.400Z,0
2015-05-13T00:27:19.650Z,0
2015-05-13T00:27:37.902Z,0
2015-05-13T00:27:56.168Z,0
2015-05-13T00:28:14.418Z,0
2015-05-13T00:28:32.670Z,0
2015-05-13T00:28:50.920Z,0
2015-05-13T00:29:09.170Z,0
2015-05-13T00:29:27.420Z,0
2015-05-13T00:29:45.673Z,0
2015-05-13T00:30:03.923Z,0
2015-05-13T00:30:22.173Z,0
2015-05-13T00:30:40.425Z,0
2015-05-13T00:30:58.675Z,0
2015-05-13T00:31:16.925Z,0
2015-05-13T00:31:35.161Z,0
2015-05-13T00:31:53.411Z,0
2015-05-13T00:32:11.661Z,0
2015-05-13T00:32:29.911Z,0
2015-05-13T00:32:48.148Z,0
2015-05-13T00:33:06.398Z,0
2015-05-13T00:33:24.648Z,0
2015-05-13T00:33:42.900Z,0
2015-05-13T00:34:01.150Z,0
2015-05-13T00:34:19.400Z,0
2015-05-13T00:34:37.652Z,0
2015-05-13T00:34:55.902Z,0
2015-05-13T00:35:14.152Z,0
2015-05-13T00:35:32.404Z,0
2015-05-13T00:35:50.639Z,0
2015-05-13T00:36:08.904Z,0
2015-05-13T00:36:27.139Z,0
2015-05-13T00:36:45.392Z,0
2015-05-13T00:37:03.626Z,0
2015-05-13T00:37:21.876Z,0
2015-05-13T00:37:40.128Z,0
2015-05-13T00:37:58.394Z,0
2015-05-13T00:38:16.644Z,0
2015-05-13T00:38:34.897Z,0
2015-05-13T00:38:53.147Z,0
2015-05-13T00:39:11.381Z,0
2015-05-13T00:39:29.631Z,0
2015-05-13T00:39:47.883Z,0
2015-05-13T00:40:06.133Z,0
2015-05-13T00:40:24.383Z,0
2015-05-13T00:40:42.635Z,0
2015-05-13T00:41:00.885Z,0
2015-05-13T00:41:19.135Z,0
2015-05-13T00:41:37.372Z,0
2015-05-13T00:41:55.622Z,0
2015-05-13T00:42:13.888Z,0
2015-05-13T00:42:32.138Z,0
2015-05-13T00:42:50.390Z,0
2015-05-13T00:43:08.640Z,0
2015-05-13T00:43:26.890Z,0
2015-05-13T00:43:45.142Z,0
2015-05-13T00:44:03.392Z,0
2015-05-13T00:44:21.642Z,0
2015-05-13T00:44:39.894Z,0
2015-05-13T00:44:58.144Z,0
2015-05-13T00:45:16.394Z,0
2015-05-13T00:45:34.647Z,0
2015-05-13T00:45:52.897Z,0
2015-05-13T00:46:11.147Z,0
2015-05-13T00:46:29.397Z,0
2015-05-13T00:46:47.649Z,0
2015-05-13T00:47:05.899Z,0
2015-05-13T00:47:24.149Z,0
2015-05-13T00:47:42.397Z,0
2015-05-13T00:48:00.647Z,0
2015-05-13T00:48:18.897Z,0
2015-05-13T00:48:37.163Z,0
2015-05-13T00:48:55.413Z,0
2015-05-13T00:49:13.663Z,0
2015-05-13T00:49:31.913Z,0
2015-05-13T00:49:50.180Z,0
2015-05-13T00:50:08.415Z,0
2015-05-13T00:50:26.665Z,0
2015-05-13T00:50:44.931Z,0
2015-05-13T00:51:03.181Z,0
2015-05-13T00:51:21.431Z,0
2015-05-13T00:51:39.697Z,0
2015-05-13T00:51:57.947Z,0
2015-05-13T00:52:16.197Z,0
2015-05-13T00:52:34.447Z,0
2015-05-13T00:52:52.706Z,0
2015-05-13T00:53:10.940Z,0
2015-05-13T00:53:29.190Z,0
2015-05-13T00:53:47.447Z,0
2015-05-13T00:54:05.697Z,0
2015-05-13T00:54:23.947Z,0
2015-05-13T00:54:42.204Z,0
2015-05-13T00:55:00.454Z,0
2015-05-13T00:55:18.689Z,0
2015-05-13T00:55:36.954Z,0
2015-05-13T00:55:55.196Z,0
2015-05-13T00:56:13.446Z,0
2015-05-13T00:56:31.696Z,0
2015-05-13T00:56:49.953Z,0
2015-05-13T00:57:08.203Z,0
2015-05-13T00:57:26.437Z,0
2015-05-13T00:57:44.692Z,0
2015-05-13T00:58:02.942Z,0
2015-05-13T00:58:21.192Z,0
2015-05-13T00:58:39.442Z,0
2015-05-13T00:58:57.696Z,0
2015-05-13T00:59:15.930Z,0
2015-05-13T00:59:34.180Z,0
2015-05-13T00:59:52.433Z,0
2015-05-13T01:00:10.683Z,0
2015-05-13T01:00:28.933Z,0
2015-05-13T01:00:47.187Z,0
2015-05-13T01:01:05.437Z,0
2015-05-13T01:01:23.687Z,0
2015-05-13T01:01:41.926Z,0
2015-05-13T01:02:00.176Z,0
2015-05-13T01:02:18.426Z,0
2015-05-13T01:02:36.676Z,0
2015-05-13T01:02:54.929Z,0
2015-05-13T01:03:13.179Z,0
2015-05-13T01:03:31.413Z,0
2015-05-13T01:03:49.666Z,0
2015-05-13T01:04:07.916Z,0
2015-05-13T01:04:26.166Z,0
2015-05-13T01:04:44.420Z,0
2015-05-13T01:05:02.670Z,0
2015-05-13T01:05:20.764Z,0
2015-05-13T01:05:39.014Z,0
2015-05-13T01:05:57.282Z,0
2015-05-13T01:06:15.517Z,0
2015-05-13T01:06:33.798Z,0
2015-05-13T01:06:51.864Z,0
2015-05-13T01:07:10.114Z,0
2015-05-13T01:07:28.348Z,0
2015-05-13T01:07:46.600Z,0
2015-05-13T01:08:04.850Z,0
2015-05-13T01:08:23.100Z,0
2015-05-13T01:08:41.350Z,0
2015-05-13T01:08:59.619Z,0
2015-05-13T01:09:17.884Z,0
2015-05-13T01:09:36.134Z,0
2015-05-13T01:09:54.418Z,0
2015-05-13T01:10:12.684Z,0
2015-05-13T01:10:30.903Z,0
2015-05-13T01:10:49.155Z,0
2015-05-13T01:11:07.420Z,0
2015-05-13T01:11:25.655Z,0
2015-05-13T01:11:43.905Z,0
2015-05-13T01:12:02.159Z,0
2015-05-13T01:12:20.409Z,0
2015-05-13T01:12:38.659Z,0
2015-05-13T01:12:56.910Z,0
2015-05-13T01:13:15.160Z,0
2015-05-13T01:13:33.410Z,0
2015-05-13T01:13:51.663Z,0
2015-05-13T01:14:09.913Z,0
2015-05-13T01:14:28.163Z,0
2015-05-13T01:14:46.416Z,0
2015-05-13T01:15:04.666Z,0
2015-05-13T01:15:22.916Z,0
2015-05-13T01:15:41.166Z,0
2015-05-13T01:15:59.417Z,0
2015-05-13T01:16:17.667Z,0
2015-05-13T01:16:35.917Z,0
2015-05-13T01:16:54.185Z,0
2015-05-13T01:17:12.435Z,0
2015-05-13T01:17:30.685Z,0
2015-05-13T01:17:48.937Z,0
2015-05-13T01:18:07.187Z,0
2015-05-13T01:18:25.437Z,0
2015-05-13T01:18:43.687Z,0
2015-05-13T01:19:01.939Z,0
2015-05-13T01:19:20.205Z,0
2015-05-13T01:19:38.455Z,0
2015-05-13T01:19:56.708Z,0
2015-05-13T01:20:14.958Z,0
2015-05-13T01:20:33.224Z,0
2015-05-13T01:20:51.476Z,0
2015-05-13T01:21:09.726Z,0
2015-05-13T01:21:27.976Z,0
2015-05-13T01:21:46.228Z,0
2015-05-13T01:22:04.478Z,0
2015-05-13T01:22:22.728Z,0
2015-05-13T01:22:40.978Z,0
2015-05-13T01:22:59.231Z,0
2015-05-13T01:23:17.481Z,0
2015-05-13T01:23:35.731Z,0
2015-05-13T01:23:53.983Z,0
2015-05-13T01:24:12.233Z,0
2015-05-13T01:24:30.467Z,0
2015-05-13T01:24:48.719Z,0
2015-05-13T01:25:06.969Z,0
2015-05-13T01:25:25.219Z,0
2015-05-13T01:25:43.469Z,0
2015-05-13T01:26:01.721Z,0
2015-05-13T01:26:19.971Z,0
2015-05-13T01:26:38.237Z,0
2015-05-13T01:26:56.458Z,0
2015-05-13T01:27:14.708Z,0
2015-05-13T01:27:32.958Z,0
2015-05-13T01:27:51.210Z,0
2015-05-13T01:28:09.460Z,0
2015-05-13T01:28:27.710Z,0
2015-05-13T01:28:45.960Z,0
2015-05-13T01:29:04.213Z,0
2015-05-13T01:29:22.463Z,0
2015-05-13T01:29:40.741Z,0
2015-05-13T01:29:58.977Z,0
2015-05-13T01:30:17.227Z,0
2015-05-13T01:30:35.477Z,0
2015-05-13T01:30:53.729Z,0
2015-05-13T01:31:11.979Z,0
2015-05-13T01:31:30.229Z,0
2015-05-13T01:31:48.465Z,0
2015-05-13T01:32:06.715Z,0
2015-05-13T01:32:24.965Z,0
2015-05-13T01:32:43.215Z,0
2015-05-13T01:33:01.468Z,0
2015-05-13T01:33:19.562Z,0
2015-05-13T01:33:37.812Z,0
2015-05-13T01:33:56.064Z,0
2015-05-13T01:34:14.314Z,0
2015-05-13T01:34:32.564Z,0
2015-05-13T01:34:50.817Z,0
2015-05-13T01:35:09.067Z,0
2015-05-13T01:35:27.302Z,0
2015-05-13T01:35:45.567Z,0
2015-05-13T01:36:03.804Z,0
2015-05-13T01:36:22.054Z,0
2015-05-13T01:36:40.304Z,0
2015-05-13T01:36:58.556Z,0
2015-05-13T01:37:16.806Z,0
2015-05-13T01:37:35.056Z,0
2015-05-13T01:37:53.308Z,0
2015-05-13T01:38:11.558Z,0
2015-05-13T01:38:29.792Z,0
2015-05-13T01:38:48.042Z,0
2015-05-13T01:39:06.295Z,0
2015-05-13T01:39:24.529Z,0
2015-05-13T01:39:42.779Z,0
2015-05-13T01:40:01.048Z,0
2015-05-13T01:40:19.282Z,0
2015-05-13T01:40:37.532Z,0
2015-05-13T01:40:55.784Z,0
2015-05-13T01:41:14.034Z,0
2015-05-13T01:41:32.284Z,0
2015-05-13T01:41:50.534Z,0
2015-05-13T01:42:08.786Z,0
2015-05-13T01:42:27.036Z,0
2015-05-13T01:42:45.286Z,0
2015-05-13T01:43:03.538Z,0
2015-05-13T01:43:21.788Z,0
2015-05-13T01:43:40.038Z,0
2015-05-13T01:43:58.290Z,0
2015-05-13T01:44:16.540Z,0
2015-05-13T01:44:34.775Z,0
2015-05-13T01:44:53.027Z,0
2015-05-13T01:45:11.277Z,0
2015-05-13T01:45:29.527Z,0
2015-05-13T01:45:47.777Z,0
2015-05-13T01:46:06.014Z,0
2015-05-13T01:46:24.264Z,0
2015-05-13T01:46:42.514Z,0
2015-05-13T01:47:00.750Z,0
2015-05-13T01:47:19.000Z,0
2015-05-13T01:47:37.250Z,0
2015-05-13T01:47:55.503Z,0
2015-05-13T01:48:13.753Z,0
2015-05-13T01:48:32.003Z,0
2015-05-13T01:48:50.253Z,0
2015-05-13T01:49:08.490Z,0
2015-05-13T01:49:26.740Z,0
2015-05-13T01:49:44.990Z,0
2015-05-13T01:50:03.242Z,0
2015-05-13T01:50:21.492Z,0
2015-05-13T01:50:39.742Z,0
2015-05-13T01:50:58.010Z,0
2015-05-13T01:51:16.245Z,0
2015-05-13T01:51:34.495Z,0
2015-05-13T01:51:52.745Z,0
2015-05-13T01:52:10.981Z,0
2015-05-13T01:52:29.231Z,0
2015-05-13T01:52:47.497Z,0
2015-05-13T01:53:05.733Z,0
2015-05-13T01:53:23.983Z,0
2015-05-13T01:53:42.249Z,0
2015-05-13T01:54:00.486Z,0
2015-05-13T01:54:18.736Z,0
2015-05-13T01:54:36.986Z,0
2015-05-13T01:54:55.238Z,0
2015-05-13T01:55:13.488Z,0
2015-05-13T01:55:31.738Z,0
2015-05-13T01:55:49.973Z,0
2015-05-13T01:56:08.240Z,0
2015-05-13T01:56:26.475Z,0
2015-05-13T01:56:44.725Z,0
2015-05-13T01:57:02.993Z,0
2015-05-13T01:57:21.243Z,0
2015-05-13T01:57:39.493Z,0
2015-05-13T01:57:57.745Z,0
2015-05-13T01:58:15.995Z,0
2015-05-13T01:58:34.245Z,0
2015-05-13T01:58:52.495Z,0
2015-05-13T01:59:10.747Z,0
2015-05-13T01:59:28.982Z,0
2015-05-13T01:59:47.232Z,0
2015-05-13T02:00:05.469Z,0
2015-05-13T02:00:23.719Z,0
2015-05-13T02:00:41.969Z,0
2015-05-13T02:01:00.205Z,0
2015-05-13T02:01:18.455Z,0
2015-05-13T02:01:36.705Z,0
2015-05-13T02:01:54.955Z,0
2015-05-13T02:02:13.208Z,0
2015-05-13T02:02:31.458Z,0
2015-05-13T02:02:49.708Z,0
2015-05-13T02:03:07.959Z,0
2015-05-13T02:03:26.209Z,0
2015-05-13T02:03:44.459Z,0
2015-05-13T02:04:02.711Z,0
2015-05-13T02:04:20.946Z,0
2015-05-13T02:04:39.196Z,0
2015-05-13T02:04:57.477Z,0
2015-05-13T02:05:15.699Z,0
2015-05-13T02:05:33.949Z,0
2015-05-13T02:05:52.199Z,0
2015-05-13T02:06:10.451Z,0
2015-05-13T02:06:28.701Z,0
2015-05-13T02:06:46.951Z,0
2015-05-13T02:07:05.204Z,0
2015-05-13T02:07:23.454Z,0
2015-05-13T02:07:41.704Z,0
2015-05-13T02:07:59.956Z,0
2015-05-13T02:08:18.206Z,0
2015-05-13T02:08:36.456Z,0
2015-05-13T02:08:54.690Z,0
2015-05-13T02:09:12.942Z,0
2015-05-13T02:09:31.176Z,0
2015-05-13T02:09:49.442Z,0
2015-05-13T02:10:07.694Z,0
2015-05-13T02:10:25.944Z,0
2015-05-13T02:10:44.194Z,0
2015-05-13T02:11:02.447Z,0
2015-05-13T02:11:20.697Z,0
2015-05-13T02:11:38.931Z,0
2015-05-13T02:11:57.181Z,0
2015-05-13T02:12:15.419Z,0
2015-05-13T02:12:33.669Z,0
2015-05-13T02:12:51.919Z,0
2015-05-13T02:13:10.171Z,0
2015-05-13T02:13:28.421Z,0
2015-05-13T02:13:46.671Z,0
2015-05-13T02:14:04.907Z,0
2015-05-13T02:14:23.157Z,0
2015-05-13T02:14:41.407Z,0
2015-05-13T02:14:59.657Z,0
2015-05-13T02:15:17.909Z,0
2015-05-13T02:15:36.159Z,0
2015-05-13T02:15:54.394Z,0
2015-05-13T02:16:12.647Z,0
2015-05-13T02:16:30.897Z,0
2015-05-13T02:16:49.147Z,0
2015-05-13T02:17:07.383Z,0
2015-05-13T02:17:25.633Z,0
2015-05-13T02:17:43.883Z,0
2015-05-13T02:18:02.135Z,0
2015-05-13T02:18:20.385Z,0
2015-05-13T02:18:38.619Z,0
2015-05-13T02:18:56.869Z,0
2015-05-13T02:19:15.121Z,0
2015-05-13T02:19:33.356Z,0
2015-05-13T02:19:51.606Z,0
2015-05-13T02:20:09.842Z,0
2015-05-13T02:20:28.092Z,0
2015-05-13T02:20:46.342Z,0
2015-05-13T02:21:04.579Z,0
2015-05-13T02:21:22.829Z,0
2015-05-13T02:21:41.079Z,0
2015-05-13T02:21:59.329Z,0
2015-05-13T02:22:17.566Z,0
2015-05-13T02:22:35.816Z,0
2015-05-13T02:22:54.050Z,0
2015-05-13T02:23:12.303Z,0
2015-05-13T02:23:30.538Z,0
2015-05-13T02:23:48.788Z,0
2015-05-13T02:24:07.024Z,0
2015-05-13T02:24:25.274Z,0
2015-05-13T02:24:43.508Z,0
2015-05-13T02:25:01.758Z,0
2015-05-13T02:25:20.010Z,0
2015-05-13T02:25:38.245Z,0
2015-05-13T02:25:56.495Z,0
2015-05-13T02:26:14.731Z,0
2015-05-13T02:26:32.981Z,0
2015-05-13T02:26:51.231Z,0
2015-05-13T02:27:09.484Z,0
2015-05-13T02:27:27.718Z,0
2015-05-13T02:27:45.968Z,0
2015-05-13T02:28:04.203Z,0
2015-05-13T02:28:22.470Z,0
2015-05-13T02:28:40.705Z,0
2015-05-13T02:28:58.955Z,0
2015-05-13T02:29:17.207Z,0
2015-05-13T02:29:35.441Z,0
2015-05-13T02:29:53.691Z,0
2015-05-13T02:30:11.928Z,0
2015-05-13T02:30:30.178Z,0
2015-05-13T02:30:48.428Z,0
2015-05-13T02:31:06.681Z,0
2015-05-13T02:31:24.915Z,0
2015-05-13T02:31:43.149Z,0
2015-05-13T02:32:01.399Z,0
2015-05-13T02:32:19.652Z,0
2015-05-13T02:32:37.887Z,0
2015-05-13T02:32:56.137Z,0
2015-05-13T02:33:14.372Z,0
2015-05-13T02:33:32.622Z,0
2015-05-13T02:33:50.856Z,0
2015-05-13T02:34:09.110Z,0
2015-05-13T02:34:27.360Z,0
2015-05-13T02:34:45.595Z,0
2015-05-13T02:35:03.845Z,0
2015-05-13T02:35:22.096Z,0
2015-05-13T02:35:40.330Z,0
2015-05-13T02:35:58.580Z,0
2015-05-13T02:36:16.832Z,0
2015-05-13T02:36:35.067Z,0
2015-05-13T02:36:53.317Z,0
2015-05-13T02:37:11.570Z,0
2015-05-13T02:37:29.820Z,0
2015-05-13T02:37:48.054Z,0
2015-05-13T02:38:06.304Z,0
2015-05-13T02:38:24.556Z,0
2015-05-13T02:38:42.806Z,0
2015-05-13T02:39:01.040Z,0
2015-05-13T02:39:19.293Z,0
2015-05-13T02:39:37.559Z,0
2015-05-13T02:39:55.778Z,0
2015-05-13T02:40:14.030Z,0
2015-05-13T02:40:32.264Z,0
2015-05-13T02:40:50.514Z,0
2015-05-13T02:41:08.750Z,0
2015-05-13T02:41:27.000Z,0
2015-05-13T02:41:45.250Z,0
2015-05-13T02:42:03.485Z,0
2015-05-13T02:42:21.738Z,1
2015-05-13T02:42:39.972Z,1
2015-05-13T02:42:58.222Z,1
2015-05-13T02:43:16.474Z,1
2015-05-13T02:43:34.709Z,1
2015-05-13T02:43:52.959Z,1
2015-05-13T02:44:11.211Z,1
2015-05-13T02:44:29.445Z,1
2015-05-13T02:44:47.695Z,1
2015-05-13T02:45:05.945Z,1
2015-05-13T02:45:24.181Z,1
2015-05-13T02:45:42.431Z,2
2015-05-13T02:46:00.666Z,2
2015-05-13T02:46:18.918Z,2
2015-05-13T02:46:37.168Z,2
2015-05-13T02:46:55.402Z,2
2015-05-13T02:47:13.656Z,2
2015-05-13T02:47:31.890Z,2
2015-05-13T02:47:50.140Z,3
2015-05-13T02:48:08.375Z,3
2015-05-13T02:48:26.627Z,3
2015-05-13T02:48:44.861Z,3
2015-05-13T02:49:03.111Z,3
2015-05-13T02:49:21.347Z,4
2015-05-13T02:49:39.597Z,4
2015-05-13T02:49:57.831Z,4
2015-05-13T02:50:16.085Z,4
2015-05-13T02:50:34.335Z,4
2015-05-13T02:50:52.585Z,4
2015-05-13T02:51:10.820Z,5
2015-05-13T02:51:29.070Z,5
2015-05-13T02:51:47.320Z,5
2015-05-13T02:52:05.555Z,5
2015-05-13T02:52:23.808Z,6
2015-05-13T02:52:42.042Z,6
2015-05-13T02:53:00.292Z,6
2015-05-13T02:53:18.544Z,6
2015-05-13T02:53:36.778Z,7
2015-05-13T02:53:55.013Z,7
2015-05-13T02:54:13.265Z,7
2015-05-13T02:54:31.515Z,7
2015-05-13T02:54:49.765Z,8
2015-05-13T02:55:07.999Z,8
2015-05-13T02:55:26.251Z,8
2015-05-13T02:55:44.486Z,9
2015-05-13T02:56:02.736Z,9
2015-05-13T02:56:20.973Z,9
2015-05-13T02:56:39.223Z,10
2015-05-13T02:56:57.473Z,10
2015-05-13T02:57:15.709Z,10
2015-05-13T02:57:33.959Z,11
2015-05-13T02:57:52.194Z,11
2015-05-13T02:58:10.444Z,12
2015-05-13T02:58:28.697Z,12
2015-05-13T02:58:46.947Z,12
2015-05-13T02:59:05.181Z,13
2015-05-13T02:59:23.433Z,13
2015-05-13T02:59:41.683Z,14
2015-05-13T02:59:59.917Z,14
2015-05-13T03:00:18.174Z,15
2015-05-13T03:00:36.424Z,15
2015-05-13T03:00:54.659Z,16
2015-05-13T03:01:12.909Z,16
2015-05-13T03:01:31.176Z,17
2015-05-13T03:01:49.411Z,17
2015-05-13T03:02:07.661Z,18
2015-05-13T03:02:25.914Z,18
2015-05-13T03:02:44.148Z,19
2015-05-13T03:03:02.398Z,19
2015-05-13T03:03:20.650Z,20
2015-05-13T03:03:38.885Z,20
2015-05-13T03:03:57.135Z,21
2015-05-13T03:04:15.388Z,22
2015-05-13T03:04:33.622Z,22
2015-05-13T03:04:51.872Z,23
2015-05-13T03:05:10.138Z,24
2015-05-13T03:05:28.374Z,24
2015-05-13T03:05:46.608Z,25
2015-05-13T03:06:04.874Z,25
2015-05-13T03:06:23.126Z,26
2015-05-13T03:06:41.360Z,27
2015-05-13T03:06:59.610Z,27
2015-05-13T03:07:17.862Z,28
2015-05-13T03:07:36.112Z,29
2015-05-13T03:07:54.362Z,30
2015-05-13T03:08:12.597Z,30
2015-05-13T03:08:30.865Z,31
2015-05-13T03:08:49.115Z,32
2015-05-13T03:09:07.350Z,32
2015-05-13T03:09:25.602Z,33
2015-05-13T03:09:43.852Z,34
2015-05-13T03:10:02.102Z,35
2015-05-13T03:10:20.338Z,36
2015-05-13T03:10:38.588Z,36
2015-05-13T03:10:56.838Z,37
2015-05-13T03:11:15.088Z,38
2015-05-13T03:11:33.325Z,39
2015-05-13T03:11:51.575Z,40
2015-05-13T03:12:09.825Z,40
2015-05-13T03:12:28.062Z,41
2015-05-13T03:12:46.312Z,42
2015-05-13T03:13:04.562Z,47
2015-05-13T03:13:22.814Z,48
2015-05-13T03:13:41.048Z,49
2015-05-13T03:13:59.298Z,49
2015-05-13T03:14:17.551Z,50
2015-05-13T03:14:35.801Z,51
2015-05-13T03:14:54.051Z,52
2015-05-13T03:15:12.301Z,53
2015-05-13T03:15:30.538Z,54
2015-05-13T03:15:48.788Z,55
2015-05-13T03:16:07.042Z,56
2015-05-13T03:16:25.294Z,57
2015-05-13T03:16:43.529Z,57
2015-05-13T03:17:01.779Z,52
2015-05-13T03:17:20.015Z,53
2015-05-13T03:17:38.281Z,54
2015-05-13T03:17:56.531Z,55
2015-05-13T03:18:14.765Z,56
2015-05-13T03:18:33.018Z,57
2015-05-13T03:18:51.268Z,58
2015-05-13T03:19:09.518Z,59
2015-05-13T03:19:27.770Z,60
2015-05-13T03:19:46.005Z,61
2015-05-13T03:20:04.255Z,62
2015-05-13T03:20:22.508Z,62
2015-05-13T03:20:40.742Z,63
2015-05-13T03:20:58.992Z,65
2015-05-13T03:21:17.242Z,66
2015-05-13T03:21:35.478Z,67
2015-05-13T03:21:53.728Z,68
2015-05-13T03:22:11.978Z,69
2015-05-13T03:22:30.215Z,69
2015-05-13T03:22:48.480Z,71
2015-05-13T03:23:06.730Z,72
2015-05-13T03:23:24.998Z,73
2015-05-13T03:23:43.217Z,74
2015-05-13T03:24:01.467Z,75
2015-05-13T03:24:19.720Z,76
2015-05-13T03:24:37.954Z,77
2015-05-13T03:24:56.220Z,78
2015-05-13T03:25:14.454Z,79
2015-05-13T03:25:32.706Z,80
2015-05-13T03:25:50.956Z,81
2015-05-13T03:26:09.206Z,82
2015-05-13T03:26:27.459Z,83
2015-05-13T03:26:45.709Z,84
2015-05-13T03:27:03.975Z,85
2015-05-13T03:27:22.227Z,86
2015-05-13T03:27:40.477Z,87
2015-05-13T03:27:58.711Z,88
2015-05-13T03:28:16.961Z,90
2015-05-13T03:28:35.213Z,91
2015-05-13T03:28:53.463Z,92
2015-05-13T03:29:11.713Z,93
2015-05-13T03:29:29.965Z,94
2015-05-13T03:29:48.199Z,95
2015-05-13T03:30:06.449Z,96
2015-05-13T03:30:24.702Z,97
2015-05-13T03:30:42.952Z,98
2015-05-13T03:31:01.202Z,99
2015-05-13T03:31:19.452Z,100
2015-05-13T03:31:37.689Z,101
2015-05-13T03:31:55.939Z,102
2015-05-13T03:32:14.173Z,103
2015-05-13T03:32:32.425Z,104
2015-05-13T03:32:50.675Z,105
2015-05-13T03:33:08.925Z,107
2015-05-13T03:33:27.178Z,108
2015-05-13T03:33:45.428Z,109
2015-05-13T03:34:03.663Z,110
2015-05-13T03:34:21.913Z,111
2015-05-13T03:34:40.164Z,112
2015-05-13T03:34:58.414Z,113
2015-05-13T03:35:16.664Z,114
2015-05-13T03:35:34.902Z,115
2015-05-13T03:35:53.152Z,116
2015-05-13T03:36:11.402Z,117
2015-05-13T03:36:29.654Z,119
2015-05-13T03:36:47.888Z,120
2015-05-13T03:37:06.138Z,121
2015-05-13T03:37:24.390Z,122
2015-05-13T03:37:42.640Z,123
2015-05-13T03:38:00.890Z,124
2015-05-13T03:38:19.125Z,126
2015-05-13T03:38:37.392Z,127
2015-05-13T03:38:55.627Z,128
2015-05-13T03:39:13.877Z,129
2015-05-13T03:39:32.130Z,131
2015-05-13T03:39:50.380Z,132
2015-05-13T03:40:08.630Z,134
2015-05-13T03:40:26.881Z,135
2015-05-13T03:40:45.115Z,136
2015-05-13T03:41:03.365Z,138
2015-05-13T03:41:21.615Z,139
2015-05-13T03:41:39.868Z,141
2015-05-13T03:41:58.118Z,143
2015-05-13T03:42:16.368Z,144
2015-05-13T03:42:34.620Z,146
2015-05-13T03:42:52.870Z,147
2015-05-13T03:43:11.120Z,149
2015-05-13T03:43:29.201Z,151
2015-05-13T03:43:47.451Z,152
2015-05-13T03:44:05.701Z,154
2015-05-13T03:44:23.951Z,156
2015-05-13T03:44:42.189Z,157
2015-05-13T03:45:00.439Z,159
2015-05-13T03:45:18.689Z,161
2015-05-13T03:45:36.924Z,163
2015-05-13T03:45:55.174Z,164
2015-05-13T03:46:13.428Z,166
2015-05-13T03:46:31.681Z,167
2015-05-13T03:46:49.931Z,182
2015-05-13T03:47:08.181Z,181
2015-05-13T03:47:26.431Z,182
2015-05-13T03:47:44.683Z,183
2015-05-13T03:48:02.933Z,185
2015-05-13T03:48:21.167Z,186
2015-05-13T03:48:39.420Z,187
2015-05-13T03:48:57.670Z,188
2015-05-13T03:49:15.920Z,189
2015-05-13T03:49:34.172Z,191
2015-05-13T03:49:52.422Z,191
2015-05-13T03:50:10.657Z,193
2015-05-13T03:50:28.909Z,194
2015-05-13T03:50:47.159Z,196
2015-05-13T03:51:05.413Z,197
2015-05-13T03:51:23.663Z,199
2015-05-13T03:51:41.915Z,200
2015-05-13T03:52:00.165Z,202
2015-05-13T03:52:18.415Z,203
2015-05-13T03:52:36.652Z,205
2015-05-13T03:52:54.902Z,207
2015-05-13T03:53:13.152Z,207
2015-05-13T03:53:31.405Z,209
2015-05-13T03:53:49.655Z,209
2015-05-13T03:54:07.889Z,211
2015-05-13T03:54:26.160Z,214
2015-05-13T03:54:44.406Z,213
2015-05-13T03:55:02.656Z,214
2015-05-13T03:55:20.906Z,217
2015-05-13T03:55:39.159Z,219
2015-05-13T03:55:57.409Z,219
2015-05-13T03:56:15.659Z,222
2015-05-13T03:56:33.911Z,223
2015-05-13T03:56:52.161Z,225
2015-05-13T03:57:10.411Z,225
2015-05-13T03:57:28.661Z,226
2015-05-13T03:57:46.913Z,229
2015-05-13T03:58:05.163Z,231
2015-05-13T03:58:23.413Z,230
2015-05-13T03:58:41.650Z,232
2015-05-13T03:58:59.900Z,234
2015-05-13T03:59:18.150Z,234
2015-05-13T03:59:36.402Z,237
2015-05-13T03:59:54.652Z,237
2015-05-13T04:00:12.902Z,241
2015-05-13T04:00:31.139Z,242
2015-05-13T04:00:49.389Z,242
2015-05-13T04:01:07.639Z,244
2015-05-13T04:01:25.889Z,244
2015-05-13T04:01:44.142Z,246
2015-05-13T04:02:02.376Z,247
2015-05-13T04:02:20.626Z,249
2015-05-13T04:02:38.878Z,250
2015-05-13T04:02:57.128Z,250
2015-05-13T04:03:15.362Z,251
2015-05-13T04:03:33.614Z,253
2015-05-13T04:03:51.864Z,253
2015-05-13T04:04:10.114Z,255
2015-05-13T04:04:28.364Z,256
2015-05-13T04:04:46.602Z,259
2015-05-13T04:05:04.852Z,259
2015-05-13T04:05:23.102Z,261
2015-05-13T04:05:41.353Z,262
2015-05-13T04:05:59.603Z,264
2015-05-13T04:06:17.853Z,264
2015-05-13T04:06:36.106Z,265
2015-05-13T04:06:54.356Z,269
2015-05-13T04:07:12.606Z,267
2015-05-13T04:07:30.856Z,268
2015-05-13T04:07:49.108Z,269
2015-05-13T04:08:07.342Z,270
2015-05-13T04:08:25.592Z,273
2015-05-13T04:08:43.845Z,275
2015-05-13T04:09:02.095Z,274
2015-05-13T04:09:20.345Z,275
2015-05-13T04:09:38.597Z,276
2015-05-13T04:09:56.831Z,278
2015-05-13T04:10:15.081Z,281
2015-05-13T04:10:33.331Z,279
2015-05-13T04:10:51.583Z,283
2015-05-13T04:11:09.818Z,282
2015-05-13T04:11:28.083Z,284
2015-05-13T04:11:46.335Z,284
2015-05-13T04:12:04.570Z,285
2015-05-13T04:12:22.820Z,287
2015-05-13T04:12:41.073Z,287
2015-05-13T04:12:59.323Z,288
2015-05-13T04:13:17.573Z,291
2015-05-13T04:13:35.825Z,293
2015-05-13T04:13:54.059Z,292
2015-05-13T04:14:12.309Z,293
2015-05-13T04:14:30.559Z,296
2015-05-13T04:14:48.812Z,298
2015-05-13T04:15:07.062Z,296
2015-05-13T04:15:25.312Z,298
2015-05-13T04:15:43.564Z,297
2015-05-13T04:16:01.814Z,299
2015-05-13T04:16:20.049Z,300
2015-05-13T04:16:38.301Z,303
2015-05-13T04:16:56.551Z,302
2015-05-13T04:17:14.785Z,303
2015-05-13T04:17:33.035Z,305
2015-05-13T04:17:51.288Z,306
2015-05-13T04:18:09.538Z,306
2015-05-13T04:18:27.788Z,307
2015-05-13T04:18:46.039Z,308
2015-05-13T04:19:04.289Z,310
2015-05-13T04:19:22.539Z,309
2015-05-13T04:19:40.792Z,310
2015-05-13T04:19:59.026Z,312
2015-05-13T04:20:17.276Z,312
2015-05-13T04:20:35.526Z,311
2015-05-13T04:20:53.779Z,314
2015-05-13T04:21:12.014Z,313
2015-05-13T04:21:30.264Z,317
2015-05-13T04:21:48.516Z,317
2015-05-13T04:22:06.766Z,315
2015-05-13T04:22:25.016Z,319
2015-05-13T04:22:43.268Z,319
2015-05-13T04:23:01.518Z,318
2015-05-13T04:23:19.768Z,318
2015-05-13T04:23:38.020Z,319
2015-05-13T04:23:56.270Z,321
2015-05-13T04:24:14.520Z,321
2015-05-13T04:24:32.770Z,321